Airfield :
LOGIN :

Register | Disclaimer

   EN    FR    IT 

 










Legend :    VFR   Marginal VFR   IFR   Intensive IFR   Very Intensive IFR
Visi :
Ceiling :
>= 8 km
>= 3000ft
5 to 8 km
1000 to 3000 ft
1500m to 5 km
500 to 1000 ft
800 to 1500m
200 to 500 ft
< 800m
< 200 ft
Symbols :   Thunderstorms  Fog  Heavy snow  Heavy precipitations  Wind > 20 kt
SIGMETs :     Misc.  Thunderstorms  Icing  Turbulence  Mountain Waves  Volcanic Ashes






- Airport Elevation : 1106 ft


LFSO - Nancy / Ochey

CURRENT METAR :
  • 301430Z AUTO 01007KT 9999 BKN008 OVC016 07/05 Q1020 NOSIG

EXPIRED METARs :
  • 301400Z AUTO 01007KT 8000 BKN010 OVC015 07/06 Q1020 NOSIG
  • 301330Z AUTO 01007KT 350V050 9999 BKN012 OVC017 07/05 Q1021 BECMG BKN008
  • 301300Z AUTO 03008KT 9999 BKN012 BKN021 OVC032 07/05 Q1021 TEMPO 4000 BR BECMG BKN008
  • 301230Z AUTO 01006KT 9999 OVC010 07/05 Q1021 TEMPO 4000 BR OVC003
  • 301200Z AUTO 01004KT 340V040 7000 BKN008 OVC012 07/05 Q1021 BECMG 4000 BR OVC003

TAF TAF LFSO
Valid from the 30 at 15:00 until the 01 at 15:00 UTC


301400Z 3015/0115 01005KT 8000 BKN009 OVC013
TEMPO 3019/0108 2000 -DZ BR BKN003 OVC005
BECMG 0110/0112 BKN025 OVC035



MET'MAP, your aeronautical weather chart ! - Copyright ORBIFLY December 2007 - Disclaimer

ORBIFLY MET'MAP TEAM :

Programming & Development : Alexandra Zaïnal
Original concept : Baudouin d'Aumeries
Technical & hardware support : Manuel Goepfert
Assistance : Marc-Olivier Méhu




SOURCES & CREDITS :

   NOAA